Time,TemperatureF,DewpointF,PressureIn,WindDirection,WindDirectionDegrees,WindSpeedMPH,WindSpeedGustMPH,Humidity,HourlyPrecipIn,Conditions,Clouds,dailyrainin,SoftwareType,DateUTC
2013-07-22 00:00:00,74.5,73.3,29.86,SSW,213,0.0,0.0,96,0.00,,BKN055,0.00,VWS V14.00,2013-07-22 04:00:00,
2013-07-22 00:01:00,74.5,73.3,29.86,SSW,213,0.0,0.0,96,0.00,,BKN055,0.00,VWS V14.00,2013-07-22 04:01:00,
2013-07-22 00:10:00,74.5,73.3,29.85,SSW,213,0.0,0.0,96,0.00,,BKN055,0.00,VWS V14.00,2013-07-22 04:10:00,
2013-07-22 00:11:00,74.5,73.3,29.85,SSW,213,0.0,0.0,96,0.00,,BKN055,0.00,VWS V14.00,2013-07-22 04:11:00,
2013-07-22 00:20:00,74.5,73.3,29.85,SSW,213,0.0,0.0,96,0.00,,BKN055,0.00,VWS V14.00,2013-07-22 04:20:00,
2013-07-22 00:21:00,74.5,73.3,29.85,SSW,213,0.0,0.0,96,0.00,,BKN055,0.00,VWS V14.00,2013-07-22 04:21:00,
2013-07-22 00:30:00,74.4,73.2,29.85,SSW,213,0.0,0.0,96,0.00,,BKN055,0.00,VWS V14.00,2013-07-22 04:30:00,
2013-07-22 00:31:00,74.4,73.2,29.85,SSW,213,0.0,0.0,96,0.00,,BKN055,0.00,VWS V14.00,2013-07-22 04:31:00,
2013-07-22 00:40:00,74.3,73.4,29.86,SSW,213,0.0,0.0,97,0.00,,BKN055,0.00,VWS V14.00,2013-07-22 04:40:00,
2013-07-22 00:41:00,74.3,73.4,29.86,SSW,213,0.0,0.0,97,0.00,,BKN055,0.00,VWS V14.00,2013-07-22 04:41:00,
2013-07-22 00:50:00,74.3,73.4,29.86,SSW,213,0.0,0.0,97,0.00,,BKN055,0.00,VWS V14.00,2013-07-22 04:50:00,
2013-07-22 00:51:00,74.3,73.4,29.86,SSW,213,0.0,0.0,97,0.00,,BKN055,0.00,VWS V14.00,2013-07-22 04:51:00,
2013-07-22 01:00:00,74.2,73.3,29.85,SSW,213,0.0,0.0,97,0.00,,BKN055,0.00,VWS V14.00,2013-07-22 05:00:00,
2013-07-22 01:01:00,74.2,73.3,29.85,SSW,213,0.0,0.0,97,0.00,,BKN055,0.00,VWS V14.00,2013-07-22 05:01:00,
2013-07-22 01:10:00,74.1,73.2,29.85,SSW,213,0.0,0.0,97,0.00,,BKN055,0.00,VWS V14.00,2013-07-22 05:10:00,
2013-07-22 01:11:00,74.1,73.2,29.85,SSW,213,0.0,0.0,97,0.00,,BKN055,0.00,VWS V14.00,2013-07-22 05:11:00,
2013-07-22 01:20:00,74.1,73.2,29.85,SSW,213,0.0,0.0,97,0.00,,BKN055,0.00,VWS V14.00,2013-07-22 05:20:00,
2013-07-22 01:21:00,74.1,73.2,29.85,SSW,213,0.0,0.0,97,0.00,,BKN055,0.00,VWS V14.00,2013-07-22 05:21:00,
2013-07-22 01:30:00,73.9,73.0,29.85,SSW,213,0.0,0.0,97,0.00,,BKN055,0.00,VWS V14.00,2013-07-22 05:30:00,
2013-07-22 01:31:00,73.9,73.0,29.85,SSW,213,0.0,0.0,97,0.00,,BKN055,0.00,VWS V14.00,2013-07-22 05:31:00,
2013-07-22 01:40:00,73.9,73.3,29.85,SSW,213,0.0,0.0,98,0.00,,BKN055,0.00,VWS V14.00,2013-07-22 05:40:00,
2013-07-22 01:41:00,73.9,73.3,29.85,SSW,213,0.0,0.0,98,0.00,,BKN055,0.00,VWS V14.00,2013-07-22 05:41:00,
2013-07-22 01:50:00,73.8,73.2,29.85,SSW,213,0.0,0.0,98,0.00,,BKN055,0.00,VWS V14.00,2013-07-22 05:50:00,
2013-07-22 01:51:00,73.8,73.2,29.85,SSW,213,0.0,0.0,98,0.00,,BKN055,0.00,VWS V14.00,2013-07-22 05:51:00,
2013-07-22 02:00:00,73.9,73.3,29.85,SSW,213,0.0,0.0,98,0.00,,BKN055,0.00,VWS V14.00,2013-07-22 06:00:00,
2013-07-22 02:01:00,73.9,73.3,29.85,SSW,213,0.0,0.0,98,0.00,,BKN055,0.00,VWS V14.00,2013-07-22 06:01:00,
2013-07-22 02:10:00,74.1,73.5,29.85,SSW,213,0.0,1.0,98,0.00,,BKN055,0.00,VWS V14.00,2013-07-22 06:10:00,
2013-07-22 02:11:00,74.1,73.5,29.85,SSW,213,0.0,1.0,98,0.00,,BKN055,0.00,VWS V14.00,2013-07-22 06:11:00,
2013-07-22 02:20:00,74.1,73.2,29.84,SSW,213,0.0,2.0,97,0.00,,BKN055,0.00,VWS V14.00,2013-07-22 06:20:00,
2013-07-22 02:21:00,74.1,73.2,29.84,SSW,213,0.0,2.0,97,0.00,,BKN055,0.00,VWS V14.00,2013-07-22 06:21:00,
2013-07-22 02:30:00,73.7,72.5,29.84,SW,216,0.0,1.0,96,0.02,,BKN055,0.02,VWS V14.00,2013-07-22 06:30:00,
2013-07-22 02:31:00,73.7,72.5,29.84,SW,216,0.0,1.0,96,0.02,,BKN055,0.02,VWS V14.00,2013-07-22 06:31:00,
2013-07-22 02:40:00,73.2,71.7,29.83,WSW,237,0.0,2.0,95,0.03,,BKN055,0.03,VWS V14.00,2013-07-22 06:40:00,
2013-07-22 02:41:00,73.2,71.7,29.83,WSW,237,0.0,2.0,95,0.03,,BKN055,0.03,VWS V14.00,2013-07-22 06:41:00,
2013-07-22 02:50:00,72.8,71.6,29.82,NE,41,0.0,3.0,96,0.03,,BKN055,0.03,VWS V14.00,2013-07-22 06:50:00,
2013-07-22 02:51:00,72.8,71.6,29.82,NE,41,0.0,3.0,96,0.03,,BKN055,0.03,VWS V14.00,2013-07-22 06:51:00,
2013-07-22 03:00:00,72.4,71.2,29.82,NE,41,0.0,0.0,96,0.03,,BKN055,0.03,VWS V14.00,2013-07-22 07:00:00,
2013-07-22 03:01:00,72.4,71.2,29.82,NE,41,0.0,0.0,96,0.03,,BKN055,0.03,VWS V14.00,2013-07-22 07:01:00,
2013-07-22 03:10:00,72.3,71.4,29.81,NE,41,0.0,0.0,97,0.03,,BKN055,0.03,VWS V14.00,2013-07-22 07:10:00,
2013-07-22 03:11:00,72.3,71.4,29.81,NE,41,0.0,0.0,97,0.03,,BKN055,0.03,VWS V14.00,2013-07-22 07:11:00,
2013-07-22 03:20:00,72.1,71.2,29.81,NE,41,0.0,0.0,97,0.04,,BKN055,0.04,VWS V14.00,2013-07-22 07:20:00,
2013-07-22 03:21:00,72.1,71.2,29.81,NE,41,0.0,0.0,97,0.04,,BKN055,0.04,VWS V14.00,2013-07-22 07:21:00,
2013-07-22 03:30:00,72.1,71.2,29.81,NE,41,0.0,0.0,97,0.04,,BKN055,0.04,VWS V14.00,2013-07-22 07:30:00,
2013-07-22 03:31:00,72.1,71.2,29.81,NE,41,0.0,0.0,97,0.04,,BKN055,0.04,VWS V14.00,2013-07-22 07:31:00,
2013-07-22 03:40:00,71.9,71.3,29.80,NE,41,0.0,0.0,98,0.02,,BKN055,0.04,VWS V14.00,2013-07-22 07:40:00,
2013-07-22 03:41:00,71.9,71.3,29.80,NE,41,0.0,0.0,98,0.02,,BKN055,0.04,VWS V14.00,2013-07-22 07:41:00,
2013-07-22 03:50:00,71.8,71.2,29.80,NE,41,0.0,0.0,98,0.01,,BKN055,0.04,VWS V14.00,2013-07-22 07:50:00,
2013-07-22 03:51:00,71.8,71.2,29.80,NE,41,0.0,0.0,98,0.01,,BKN055,0.04,VWS V14.00,2013-07-22 07:51:00,
2013-07-22 04:00:00,71.6,71.0,29.81,NE,41,0.0,0.0,98,0.01,,BKN055,0.04,VWS V14.00,2013-07-22 08:00:00,
2013-07-22 04:01:00,71.6,71.0,29.81,NE,41,0.0,0.0,98,0.01,,BKN055,0.04,VWS V14.00,2013-07-22 08:01:00,
2013-07-22 04:10:00,71.7,71.1,29.81,NE,41,0.0,0.0,98,0.11,,BKN055,0.14,VWS V14.00,2013-07-22 08:10:00,
2013-07-22 04:11:00,71.7,71.1,29.81,NE,41,0.0,0.0,98,0.11,,BKN055,0.14,VWS V14.00,2013-07-22 08:11:00,
2013-07-22 04:20:00,70.8,69.9,29.80,West,263,1.0,4.0,97,0.26,,BKN055,0.29,VWS V14.00,2013-07-22 08:20:00,
2013-07-22 04:21:00,70.8,69.9,29.80,West,263,1.0,4.0,97,0.26,,BKN055,0.29,VWS V14.00,2013-07-22 08:21:00,
2013-07-22 04:30:00,70.4,69.8,29.80,West,263,0.0,1.0,98,0.25,,BKN055,0.29,VWS V14.00,2013-07-22 08:30:00,
2013-07-22 04:31:00,70.4,69.8,29.80,West,263,0.0,1.0,98,0.25,,BKN055,0.29,VWS V14.00,2013-07-22 08:31:00,
2013-07-22 04:40:00,70.3,69.7,29.80,West,263,0.0,0.0,98,0.25,,BKN055,0.29,VWS V14.00,2013-07-22 08:40:00,
2013-07-22 04:41:00,70.3,69.7,29.80,West,263,0.0,0.0,98,0.25,,BKN055,0.29,VWS V14.00,2013-07-22 08:41:00,
2013-07-22 04:50:00,70.3,69.7,29.81,West,263,0.0,0.0,98,0.27,,BKN055,0.31,VWS V14.00,2013-07-22 08:50:00,
2013-07-22 04:51:00,70.3,69.7,29.81,West,263,0.0,0.0,98,0.27,,BKN055,0.31,VWS V14.00,2013-07-22 08:51:00,
2013-07-22 05:00:00,70.2,69.6,29.81,West,263,0.0,1.0,98,0.52,,BKN055,0.56,VWS V14.00,2013-07-22 09:00:00,
2013-07-22 05:01:00,70.2,69.6,29.81,West,263,0.0,1.0,98,0.52,,BKN055,0.56,VWS V14.00,2013-07-22 09:01:00,
2013-07-22 05:10:00,70.1,69.5,29.80,West,263,0.0,1.0,98,0.59,,BKN055,0.63,VWS V14.00,2013-07-22 09:10:00,
2013-07-22 05:11:00,70.1,69.5,29.80,West,263,0.0,1.0,98,0.59,,BKN055,0.63,VWS V14.00,2013-07-22 09:11:00,
2013-07-22 05:20:00,70.1,69.8,29.81,West,263,0.0,2.0,99,0.50,,BKN055,0.64,VWS V14.00,2013-07-22 09:20:00,
2013-07-22 05:21:00,70.1,69.8,29.81,West,263,0.0,2.0,99,0.50,,BKN055,0.64,VWS V14.00,2013-07-22 09:21:00,
2013-07-22 05:30:00,70.1,69.8,29.80,West,263,0.0,0.0,99,0.35,,BKN055,0.64,VWS V14.00,2013-07-22 09:30:00,
2013-07-22 05:31:00,70.1,69.8,29.80,West,263,0.0,0.0,99,0.35,,BKN055,0.64,VWS V14.00,2013-07-22 09:31:00,
2013-07-22 05:40:00,70.1,69.8,29.81,West,263,2.0,2.0,99,0.35,,BKN055,0.64,VWS V14.00,2013-07-22 09:40:00,
2013-07-22 05:41:00,70.1,69.8,29.81,West,263,2.0,2.0,99,0.35,,BKN055,0.64,VWS V14.00,2013-07-22 09:41:00,
2013-07-22 05:50:00,70.1,69.8,29.81,West,263,0.0,2.0,99,0.35,,BKN055,0.64,VWS V14.00,2013-07-22 09:50:00,
2013-07-22 05:51:00,70.1,69.8,29.81,West,263,0.0,2.0,99,0.35,,BKN055,0.64,VWS V14.00,2013-07-22 09:51:00,
2013-07-22 06:00:00,70.1,69.8,29.81,West,263,0.0,0.0,99,0.33,,BKN055,0.64,VWS V14.00,2013-07-22 10:00:00,
2013-07-22 06:01:00,70.1,69.8,29.81,West,263,0.0,0.0,99,0.33,,BKN055,0.64,VWS V14.00,2013-07-22 10:01:00,
2013-07-22 06:10:00,70.2,69.9,29.81,West,263,0.0,0.0,99,0.08,,BKN055,0.64,VWS V14.00,2013-07-22 10:10:00,
2013-07-22 06:11:00,70.2,69.9,29.81,West,263,0.0,0.0,99,0.08,,BKN055,0.64,VWS V14.00,2013-07-22 10:11:00,
2013-07-22 06:20:00,70.2,69.9,29.81,West,263,0.0,0.0,99,0.01,,BKN055,0.64,VWS V14.00,2013-07-22 10:20:00,
2013-07-22 06:21:00,70.2,69.9,29.81,West,263,0.0,0.0,99,0.01,,BKN055,0.64,VWS V14.00,2013-07-22 10:21:00,
2013-07-22 06:30:00,70.2,69.9,29.81,West,263,0.0,0.0,99,0.00,,BKN055,0.64,VWS V14.00,2013-07-22 10:30:00,
2013-07-22 06:31:00,70.2,69.9,29.81,West,263,0.0,0.0,99,0.00,,BKN055,0.64,VWS V14.00,2013-07-22 10:31:00,
2013-07-22 06:40:00,70.2,69.9,29.81,West,263,0.0,0.0,99,0.00,,BKN055,0.64,VWS V14.00,2013-07-22 10:40:00,
2013-07-22 06:41:00,70.2,69.9,29.81,West,263,0.0,0.0,99,0.00,,BKN055,0.64,VWS V14.00,2013-07-22 10:41:00,
2013-07-22 06:50:00,70.2,69.9,29.81,West,263,0.0,0.0,99,0.00,,BKN055,0.64,VWS V14.00,2013-07-22 10:50:00,
2013-07-22 06:51:00,70.2,69.9,29.81,West,263,0.0,0.0,99,0.00,,BKN055,0.64,VWS V14.00,2013-07-22 10:51:00,
2013-07-22 07:00:00,70.2,69.9,29.81,West,263,0.0,0.0,99,0.00,,BKN055,0.64,VWS V14.00,2013-07-22 11:00:00,
2013-07-22 07:01:00,70.2,69.9,29.81,West,263,0.0,0.0,99,0.00,,BKN055,0.64,VWS V14.00,2013-07-22 11:01:00,
2013-07-22 07:10:00,70.3,70.0,29.81,West,263,0.0,0.0,99,0.00,,BKN055,0.64,VWS V14.00,2013-07-22 11:10:00,
2013-07-22 07:11:00,70.3,70.0,29.81,West,263,0.0,0.0,99,0.00,,BKN055,0.64,VWS V14.00,2013-07-22 11:11:00,
2013-07-22 07:20:00,70.3,70.0,29.81,West,263,0.0,0.0,99,0.01,,BKN055,0.65,VWS V14.00,2013-07-22 11:20:00,
2013-07-22 07:21:00,70.3,70.0,29.81,West,263,0.0,0.0,99,0.01,,BKN055,0.65,VWS V14.00,2013-07-22 11:21:00,
2013-07-22 07:30:00,70.7,70.7,29.81,West,263,0.0,2.0,100,0.03,,BKN055,0.67,VWS V14.00,2013-07-22 11:30:00,
2013-07-22 07:31:00,70.7,70.7,29.81,West,263,0.0,2.0,100,0.03,,BKN055,0.67,VWS V14.00,2013-07-22 11:31:00,
2013-07-22 07:40:00,70.7,70.7,29.81,West,263,0.0,0.0,100,0.03,,BKN055,0.67,VWS V14.00,2013-07-22 11:40:00,
2013-07-22 07:41:00,70.7,70.7,29.81,West,263,0.0,0.0,100,0.03,,BKN055,0.67,VWS V14.00,2013-07-22 11:41:00,
2013-07-22 07:50:00,71.0,71.0,29.81,West,263,0.0,2.0,100,0.03,,BKN055,0.67,VWS V14.00,2013-07-22 11:50:00,
2013-07-22 07:51:00,71.0,71.0,29.81,West,263,0.0,2.0,100,0.03,,BKN055,0.67,VWS V14.00,2013-07-22 11:51:00,
2013-07-22 08:00:00,71.1,71.1,29.81,West,263,0.0,0.0,100,0.04,,BKN055,0.68,VWS V14.00,2013-07-22 12:00:00,
2013-07-22 08:01:00,71.1,71.1,29.81,West,263,0.0,0.0,100,0.04,,BKN055,0.68,VWS V14.00,2013-07-22 12:01:00,
2013-07-22 08:10:00,71.3,71.3,29.81,West,263,0.0,0.0,100,0.04,,BKN055,0.68,VWS V14.00,2013-07-22 12:10:00,
2013-07-22 08:11:00,71.3,71.3,29.81,West,263,0.0,0.0,100,0.04,,BKN055,0.68,VWS V14.00,2013-07-22 12:11:00,
2013-07-22 08:20:00,71.4,71.4,29.81,NNE,24,0.0,0.0,100,0.05,,BKN055,0.69,VWS V14.00,2013-07-22 12:20:00,
2013-07-22 08:21:00,71.4,71.4,29.81,NNE,24,0.0,0.0,100,0.05,,BKN055,0.69,VWS V14.00,2013-07-22 12:21:00,
2013-07-22 08:30:00,71.8,71.8,29.81,NNE,24,0.0,0.0,100,0.04,,BKN055,0.69,VWS V14.00,2013-07-22 12:30:00,
2013-07-22 08:31:00,71.8,71.8,29.81,NNE,24,0.0,0.0,100,0.04,,BKN055,0.69,VWS V14.00,2013-07-22 12:31:00,
2013-07-22 08:40:00,72.0,72.0,29.82,NNE,24,0.0,0.0,100,0.02,,BKN055,0.69,VWS V14.00,2013-07-22 12:40:00,
2013-07-22 08:41:00,72.0,72.0,29.82,NNE,24,0.0,0.0,100,0.02,,BKN055,0.69,VWS V14.00,2013-07-22 12:41:00,
2013-07-22 08:50:00,72.1,72.1,29.82,NNE,24,0.0,0.0,100,0.02,,BKN055,0.69,VWS V14.00,2013-07-22 12:50:00,
2013-07-22 08:51:00,72.1,72.1,29.82,NNE,24,0.0,0.0,100,0.02,,BKN055,0.69,VWS V14.00,2013-07-22 12:51:00,
2013-07-22 09:00:00,72.0,72.0,29.82,NNE,24,0.0,2.0,100,0.03,,BKN055,0.70,VWS V14.00,2013-07-22 13:00:00,
2013-07-22 09:01:00,72.0,72.0,29.82,NNE,24,0.0,2.0,100,0.03,,BKN055,0.70,VWS V14.00,2013-07-22 13:01:00,
2013-07-22 09:10:00,71.8,71.8,29.82,WSW,242,0.0,3.0,100,0.03,,BKN055,0.71,VWS V14.00,2013-07-22 13:10:00,
2013-07-22 09:11:00,71.8,71.8,29.82,WSW,242,0.0,3.0,100,0.03,,BKN055,0.71,VWS V14.00,2013-07-22 13:11:00,
2013-07-22 09:20:00,71.7,71.7,29.82,WSW,242,0.0,3.0,100,0.04,,BKN055,0.72,VWS V14.00,2013-07-22 13:20:00,
2013-07-22 09:21:00,71.7,71.7,29.82,WSW,242,0.0,3.0,100,0.04,,BKN055,0.72,VWS V14.00,2013-07-22 13:21:00,
2013-07-22 09:30:00,71.7,71.4,29.82,WSW,246,0.0,3.0,99,0.05,,BKN055,0.74,VWS V14.00,2013-07-22 13:30:00,
2013-07-22 09:31:00,71.7,71.4,29.82,WSW,246,0.0,3.0,99,0.05,,BKN055,0.74,VWS V14.00,2013-07-22 13:31:00,
2013-07-22 09:40:00,71.7,71.4,29.82,WSW,248,0.0,3.0,99,0.08,,BKN055,0.77,VWS V14.00,2013-07-22 13:40:00,
2013-07-22 09:41:00,71.7,71.4,29.82,WSW,248,0.0,3.0,99,0.08,,BKN055,0.77,VWS V14.00,2013-07-22 13:41:00,
2013-07-22 09:50:00,71.7,71.4,29.82,WSW,256,0.0,4.0,99,0.17,,BKN055,0.86,VWS V14.00,2013-07-22 13:50:00,
2013-07-22 09:51:00,71.7,71.4,29.82,WSW,256,0.0,4.0,99,0.17,,BKN055,0.86,VWS V14.00,2013-07-22 13:51:00,
2013-07-22 10:00:00,71.8,71.8,29.82,ESE,115,0.0,4.0,100,0.25,,BKN055,0.94,VWS V14.00,2013-07-22 14:00:00,
2013-07-22 10:01:00,71.8,71.8,29.82,ESE,115,0.0,4.0,100,0.25,,BKN055,0.94,VWS V14.00,2013-07-22 14:01:00,
2013-07-22 10:10:00,71.9,71.9,29.81,ESE,115,0.0,0.0,100,0.31,,BKN055,1.01,VWS V14.00,2013-07-22 14:10:00,
2013-07-22 10:11:00,71.9,71.9,29.81,ESE,115,0.0,0.0,100,0.31,,BKN055,1.01,VWS V14.00,2013-07-22 14:11:00,
2013-07-22 10:20:00,72.3,72.3,29.81,ESE,115,0.0,0.0,100,0.31,,BKN055,1.02,VWS V14.00,2013-07-22 14:20:00,
2013-07-22 10:21:00,72.3,72.3,29.81,ESE,115,0.0,0.0,100,0.31,,BKN055,1.02,VWS V14.00,2013-07-22 14:21:00,
2013-07-22 10:30:00,72.5,72.5,29.81,ESE,115,0.0,0.0,100,0.31,,BKN055,1.03,VWS V14.00,2013-07-22 14:30:00,
2013-07-22 10:31:00,72.5,72.5,29.81,ESE,115,0.0,0.0,100,0.31,,BKN055,1.03,VWS V14.00,2013-07-22 14:31:00,
2013-07-22 10:40:00,72.7,72.7,29.80,ESE,115,0.0,0.0,100,0.29,,BKN055,1.03,VWS V14.00,2013-07-22 14:40:00,
2013-07-22 10:41:00,72.7,72.7,29.80,ESE,115,0.0,0.0,100,0.29,,BKN055,1.03,VWS V14.00,2013-07-22 14:41:00,
2013-07-22 10:50:00,72.8,72.8,29.80,North,350,0.0,3.0,100,0.26,,BKN055,1.03,VWS V14.00,2013-07-22 14:50:00,
2013-07-22 10:51:00,72.8,72.8,29.80,North,350,0.0,3.0,100,0.26,,BKN055,1.03,VWS V14.00,2013-07-22 14:51:00,
2013-07-22 11:00:00,73.0,73.0,29.80,ENE,76,0.0,0.0,100,0.18,,BKN055,1.04,VWS V14.00,2013-07-22 15:00:00,
2013-07-22 11:01:00,73.0,73.0,29.80,ENE,76,0.0,0.0,100,0.18,,BKN055,1.04,VWS V14.00,2013-07-22 15:01:00,
2013-07-22 11:10:00,73.0,73.0,29.80,ENE,76,0.0,1.0,100,0.11,,BKN055,1.05,VWS V14.00,2013-07-22 15:10:00,
2013-07-22 11:11:00,73.0,73.0,29.80,ENE,76,0.0,1.0,100,0.11,,BKN055,1.05,VWS V14.00,2013-07-22 15:11:00,
2013-07-22 11:20:00,73.2,73.2,29.80,ENE,76,0.0,1.0,100,0.05,,BKN055,1.06,VWS V14.00,2013-07-22 15:20:00,
2013-07-22 11:21:00,73.2,73.2,29.80,ENE,76,0.0,1.0,100,0.05,,BKN055,1.06,VWS V14.00,2013-07-22 15:21:00,
2013-07-22 11:30:00,73.3,73.3,29.80,ENE,76,0.0,0.0,100,0.04,,BKN055,1.06,VWS V14.00,2013-07-22 15:30:00,
2013-07-22 11:31:00,73.3,73.3,29.80,ENE,76,0.0,0.0,100,0.04,,BKN055,1.06,VWS V14.00,2013-07-22 15:31:00,
2013-07-22 11:40:00,73.3,73.3,29.80,ENE,76,0.0,0.0,100,0.04,,BKN055,1.07,VWS V14.00,2013-07-22 15:40:00,
2013-07-22 11:41:00,73.3,73.3,29.80,ENE,76,0.0,0.0,100,0.04,,BKN055,1.07,VWS V14.00,2013-07-22 15:41:00,
2013-07-22 11:50:00,73.3,73.3,29.80,SW,216,0.0,4.0,100,0.05,,BKN055,1.08,VWS V14.00,2013-07-22 15:50:00,
2013-07-22 11:51:00,73.3,73.3,29.80,SW,216,0.0,4.0,100,0.05,,BKN055,1.08,VWS V14.00,2013-07-22 15:51:00,
2013-07-22 12:00:00,73.2,73.2,29.80,SW,226,0.0,3.0,100,0.06,,BKN055,1.09,VWS V14.00,2013-07-22 16:00:00,
2013-07-22 12:01:00,73.2,73.2,29.80,SW,226,0.0,3.0,100,0.06,,BKN055,1.09,VWS V14.00,2013-07-22 16:01:00,
2013-07-22 12:10:00,73.6,73.6,29.80,SW,226,0.0,1.0,100,0.06,,BKN055,1.10,VWS V14.00,2013-07-22 16:10:00,
2013-07-22 12:11:00,73.6,73.6,29.80,SW,226,0.0,1.0,100,0.06,,BKN055,1.10,VWS V14.00,2013-07-22 16:11:00,
2013-07-22 12:20:00,73.6,73.6,29.80,ENE,74,0.0,2.0,100,0.05,,BKN055,1.10,VWS V14.00,2013-07-22 16:20:00,
2013-07-22 12:21:00,73.6,73.6,29.80,ENE,74,0.0,2.0,100,0.05,,BKN055,1.10,VWS V14.00,2013-07-22 16:21:00,
2013-07-22 12:30:00,73.4,73.1,29.80,NE,36,0.0,1.0,99,0.04,,BKN055,1.10,VWS V14.00,2013-07-22 16:30:00,
2013-07-22 12:31:00,73.4,73.1,29.80,NE,36,0.0,1.0,99,0.04,,BKN055,1.10,VWS V14.00,2013-07-22 16:31:00,
2013-07-22 12:40:00,73.7,73.4,29.80,SW,219,0.0,3.0,99,0.04,,BKN055,1.10,VWS V14.00,2013-07-22 16:40:00,
2013-07-22 12:41:00,73.7,73.4,29.80,SW,219,0.0,3.0,99,0.04,,BKN055,1.10,VWS V14.00,2013-07-22 16:41:00,
2013-07-22 12:50:00,74.0,73.7,29.80,WSW,252,0.0,2.0,99,0.03,,BKN055,1.10,VWS V14.00,2013-07-22 16:50:00,
2013-07-22 12:51:00,74.0,73.7,29.80,WSW,252,0.0,2.0,99,0.03,,BKN055,1.10,VWS V14.00,2013-07-22 16:51:00,
2013-07-22 13:00:00,74.6,74.3,29.80,WSW,248,0.0,1.0,99,0.02,,BKN055,1.10,VWS V14.00,2013-07-22 17:00:00,
2013-07-22 13:01:00,74.6,74.3,29.80,WSW,248,0.0,1.0,99,0.02,,BKN055,1.10,VWS V14.00,2013-07-22 17:01:00,
2013-07-22 13:10:00,75.1,74.5,29.79,West,265,0.0,0.0,98,0.01,,BKN055,1.10,VWS V14.00,2013-07-22 17:10:00,
2013-07-22 13:11:00,75.1,74.5,29.79,West,265,0.0,0.0,98,0.01,,BKN055,1.10,VWS V14.00,2013-07-22 17:11:00,
2013-07-22 13:20:00,75.1,74.2,29.79,West,260,0.0,2.0,97,0.00,,BKN055,1.10,VWS V14.00,2013-07-22 17:20:00,
2013-07-22 13:21:00,75.1,74.2,29.79,West,260,0.0,2.0,97,0.00,,BKN055,1.10,VWS V14.00,2013-07-22 17:21:00,
2013-07-22 13:30:00,75.7,74.8,29.78,West,261,0.0,1.0,97,0.00,,BKN055,1.10,VWS V14.00,2013-07-22 17:30:00,
2013-07-22 13:31:00,75.7,74.8,29.78,West,261,0.0,1.0,97,0.00,,BKN055,1.10,VWS V14.00,2013-07-22 17:31:00,
2013-07-22 13:40:00,75.9,74.7,29.78,West,260,0.0,4.0,96,0.00,,BKN055,1.10,VWS V14.00,2013-07-22 17:40:00,
2013-07-22 13:41:00,75.9,74.7,29.78,West,260,0.0,4.0,96,0.00,,BKN055,1.10,VWS V14.00,2013-07-22 17:41:00,
2013-07-22 13:50:00,76.8,75.9,29.78,West,261,0.0,1.0,97,0.00,,BKN055,1.10,VWS V14.00,2013-07-22 17:50:00,
2013-07-22 13:51:00,76.8,75.9,29.78,West,261,0.0,1.0,97,0.00,,BKN055,1.10,VWS V14.00,2013-07-22 17:51:00,
2013-07-22 14:00:00,77.1,74.9,29.77,SSW,210,0.0,1.0,93,0.00,,BKN055,1.10,VWS V14.00,2013-07-22 18:00:00,
2013-07-22 14:01:00,77.1,74.9,29.77,SSW,210,0.0,1.0,93,0.00,,BKN055,1.10,VWS V14.00,2013-07-22 18:01:00,
2013-07-22 14:10:00,77.0,74.2,29.77,WSW,252,1.0,5.0,91,0.00,,BKN055,1.10,VWS V14.00,2013-07-22 18:10:00,
2013-07-22 14:11:00,77.0,74.2,29.77,WSW,252,1.0,5.0,91,0.00,,BKN055,1.10,VWS V14.00,2013-07-22 18:11:00,
2013-07-22 14:20:00,77.1,74.9,29.76,NE,53,0.0,4.0,93,0.00,,BKN055,1.10,VWS V14.00,2013-07-22 18:20:00,
2013-07-22 14:21:00,77.1,74.9,29.76,NE,53,0.0,4.0,93,0.00,,BKN055,1.10,VWS V14.00,2013-07-22 18:21:00,
2013-07-22 14:30:00,77.3,74.5,29.77,SSW,203,0.0,4.0,91,0.00,,BKN055,1.10,VWS V14.00,2013-07-22 18:30:00,
2013-07-22 14:31:00,77.3,74.5,29.77,SSW,203,0.0,4.0,91,0.00,,BKN055,1.10,VWS V14.00,2013-07-22 18:31:00,
2013-07-22 14:40:00,77.5,75.0,29.76,WSW,242,0.0,4.0,92,0.00,,BKN055,1.10,VWS V14.00,2013-07-22 18:40:00,
2013-07-22 14:41:00,77.5,75.0,29.76,WSW,242,0.0,4.0,92,0.00,,BKN055,1.10,VWS V14.00,2013-07-22 18:41:00,
2013-07-22 14:50:00,78.2,74.7,29.76,WSW,252,0.0,5.0,89,0.00,,BKN055,1.10,VWS V14.00,2013-07-22 18:50:00,
2013-07-22 14:51:00,78.2,74.7,29.76,WSW,252,0.0,5.0,89,0.00,,BKN055,1.10,VWS V14.00,2013-07-22 18:51:00,
2013-07-22 15:00:00,78.7,75.5,29.76,West,259,2.0,4.0,90,0.00,,BKN055,1.10,VWS V14.00,2013-07-22 19:00:00,
2013-07-22 15:01:00,78.7,75.5,29.76,West,259,2.0,4.0,90,0.00,,BKN055,1.10,VWS V14.00,2013-07-22 19:01:00,
2013-07-22 15:10:00,79.8,75.6,29.76,SSW,207,0.0,3.0,87,0.00,,BKN055,1.10,VWS V14.00,2013-07-22 19:10:00,
2013-07-22 15:20:00,80.8,76.2,29.76,SSW,209,0.0,1.0,86,0.00,,BKN055,1.10,VWS V14.00,2013-07-22 19:20:00,
2013-07-22 15:21:00,80.8,76.2,29.76,SSW,209,0.0,1.0,86,0.00,,BKN055,1.10,VWS V14.00,2013-07-22 19:21:00,
2013-07-22 15:30:00,80.6,75.3,29.76,WSW,248,0.0,4.0,84,0.00,,BKN055,1.10,VWS V14.00,2013-07-22 19:30:00,
2013-07-22 15:31:00,80.6,75.3,29.76,WSW,248,0.0,4.0,84,0.00,,BKN055,1.10,VWS V14.00,2013-07-22 19:31:00,
2013-07-22 15:40:00,80.2,75.3,29.76,West,265,0.0,4.0,85,0.00,,BKN055,1.10,VWS V14.00,2013-07-22 19:40:00,
2013-07-22 15:41:00,80.2,75.3,29.76,West,265,0.0,4.0,85,0.00,,BKN055,1.10,VWS V14.00,2013-07-22 19:41:00,
2013-07-22 15:50:00,79.8,73.5,29.76,WSW,245,0.0,7.0,81,0.00,,BKN055,1.10,VWS V14.00,2013-07-22 19:50:00,
2013-07-22 15:51:00,79.8,73.4,29.76,WSW,245,0.0,7.0,81,0.00,,BKN055,1.10,VWS V14.00,2013-07-22 19:51:00,
2013-07-22 16:00:00,79.5,74.2,29.75,WSW,257,0.0,4.0,84,0.00,,BKN055,1.10,VWS V14.00,2013-07-22 20:00:00,
2013-07-22 16:01:00,79.5,74.2,29.75,WSW,257,0.0,4.0,84,0.00,,BKN055,1.10,VWS V14.00,2013-07-22 20:01:00,
2013-07-22 16:10:00,79.5,74.6,29.75,WSW,247,0.0,6.0,85,0.00,,BKN055,1.10,VWS V14.00,2013-07-22 20:10:00,
2013-07-22 16:11:00,79.5,74.6,29.75,WSW,247,0.0,6.0,85,0.00,,BKN055,1.10,VWS V14.00,2013-07-22 20:11:00,
2013-07-22 16:20:00,79.7,75.5,29.74,NNW,340,0.0,1.0,87,0.00,,BKN055,1.10,VWS V14.00,2013-07-22 20:20:00,
2013-07-22 16:21:00,79.7,75.5,29.74,NNW,340,0.0,1.0,87,0.00,,BKN055,1.10,VWS V14.00,2013-07-22 20:21:00,
2013-07-22 16:30:00,79.6,76.4,29.74,NW,323,0.0,1.0,90,0.00,,BKN055,1.10,VWS V14.00,2013-07-22 20:30:00,
2013-07-22 16:31:00,79.6,76.4,29.74,NW,323,0.0,1.0,90,0.00,,BKN055,1.10,VWS V14.00,2013-07-22 20:31:00,
2013-07-22 16:40:00,79.9,74.6,29.74,WSW,252,0.0,5.0,84,0.00,,BKN055,1.10,VWS V14.00,2013-07-22 20:40:00,
2013-07-22 16:41:00,79.9,74.6,29.74,WSW,252,0.0,5.0,84,0.00,,BKN055,1.10,VWS V14.00,2013-07-22 20:41:00,
2013-07-22 16:50:00,81.0,75.3,29.74,West,263,0.0,6.0,83,0.00,,BKN055,1.10,VWS V14.00,2013-07-22 20:50:00,
2013-07-22 16:51:00,81.0,75.3,29.74,West,263,0.0,6.0,83,0.00,,BKN055,1.10,VWS V14.00,2013-07-22 20:51:00,
2013-07-22 17:00:00,82.0,76.7,29.74,SSW,206,0.0,1.0,84,0.00,,BKN055,1.10,VWS V14.00,2013-07-22 21:00:00,
2013-07-22 17:01:00,82.0,76.7,29.74,SSW,206,0.0,1.0,84,0.00,,BKN055,1.10,VWS V14.00,2013-07-22 21:01:00,
2013-07-22 17:10:00,83.0,76.2,29.73,WSW,242,0.0,6.0,80,0.00,,BKN055,1.10,VWS V14.00,2013-07-22 21:10:00,
2013-07-22 17:11:00,83.0,76.2,29.73,WSW,242,0.0,6.0,80,0.00,,BKN055,1.10,VWS V14.00,2013-07-22 21:11:00,
2013-07-22 17:20:00,82.3,75.9,29.73,SW,233,0.0,1.0,81,0.00,,BKN055,1.10,VWS V14.00,2013-07-22 21:20:00,
2013-07-22 17:21:00,82.3,75.9,29.73,SW,233,0.0,1.0,81,0.00,,BKN055,1.10,VWS V14.00,2013-07-22 21:21:00,
2013-07-22 17:30:00,81.4,75.7,29.74,WSW,257,0.0,5.0,83,0.00,,BKN055,1.10,VWS V14.00,2013-07-22 21:30:00,
2013-07-22 17:31:00,81.4,75.7,29.74,WSW,257,0.0,5.0,83,0.00,,BKN055,1.10,VWS V14.00,2013-07-22 21:31:00,
2013-07-22 17:40:00,81.7,76.8,29.73,WNW,284,0.0,5.0,85,0.00,,BKN055,1.10,VWS V14.00,2013-07-22 21:40:00,
2013-07-22 17:41:00,81.7,76.8,29.73,WNW,284,0.0,5.0,85,0.00,,BKN055,1.10,VWS V14.00,2013-07-22 21:41:00,
2013-07-22 17:50:00,81.8,76.1,29.73,SW,233,0.0,5.0,83,0.00,,BKN055,1.10,VWS V14.00,2013-07-22 21:50:00,
2013-07-22 17:51:00,81.8,76.1,29.73,SW,233,0.0,5.0,83,0.00,,BKN055,1.10,VWS V14.00,2013-07-22 21:51:00,
2013-07-22 18:00:00,82.8,76.4,29.73,West,274,0.0,2.0,81,0.00,,BKN055,1.10,VWS V14.00,2013-07-22 22:00:00,
2013-07-22 18:01:00,82.8,76.4,29.73,West,274,0.0,2.0,81,0.00,,BKN055,1.10,VWS V14.00,2013-07-22 22:01:00,
2013-07-22 18:10:00,83.3,76.5,29.73,South,184,2.0,3.0,80,0.00,,BKN055,1.10,VWS V14.00,2013-07-22 22:10:00,
2013-07-22 18:11:00,83.3,76.5,29.73,South,184,2.0,3.0,80,0.00,,BKN055,1.10,VWS V14.00,2013-07-22 22:11:00,
2013-07-22 18:20:00,83.2,76.4,29.73,WSW,244,0.0,3.0,80,0.00,,BKN055,1.10,VWS V14.00,2013-07-22 22:20:00,
2013-07-22 18:21:00,83.2,76.4,29.73,WSW,244,0.0,3.0,80,0.00,,BKN055,1.10,VWS V14.00,2013-07-22 22:21:00,
2013-07-22 18:30:00,82.7,76.7,29.73,SSW,211,0.0,4.0,82,0.01,,BKN055,1.11,VWS V14.00,2013-07-22 22:30:00,
2013-07-22 18:31:00,82.7,76.7,29.73,SSW,211,0.0,4.0,82,0.01,,BKN055,1.11,VWS V14.00,2013-07-22 22:31:00,
2013-07-22 18:40:00,81.4,76.1,29.72,SSW,200,0.0,6.0,84,0.01,,BKN055,1.11,VWS V14.00,2013-07-22 22:40:00,
2013-07-22 18:41:00,81.4,76.1,29.72,SSW,200,0.0,6.0,84,0.01,,BKN055,1.11,VWS V14.00,2013-07-22 22:41:00,
2013-07-22 18:50:00,80.5,75.9,29.72,SW,229,0.0,4.0,86,0.01,,BKN055,1.11,VWS V14.00,2013-07-22 22:50:00,
2013-07-22 18:51:00,80.5,75.9,29.72,SW,229,0.0,4.0,86,0.01,,BKN055,1.11,VWS V14.00,2013-07-22 22:51:00,
2013-07-22 19:00:00,80.1,75.9,29.72,West,273,0.0,4.0,87,0.01,,BKN055,1.11,VWS V14.00,2013-07-22 23:00:00,
2013-07-22 19:01:00,80.1,75.9,29.72,West,273,0.0,4.0,87,0.01,,BKN055,1.11,VWS V14.00,2013-07-22 23:01:00,
2013-07-22 19:10:00,79.4,76.2,29.72,West,273,0.0,0.0,90,0.01,,BKN055,1.11,VWS V14.00,2013-07-22 23:10:00,
2013-07-22 19:11:00,79.4,76.2,29.72,West,273,0.0,0.0,90,0.01,,BKN055,1.11,VWS V14.00,2013-07-22 23:11:00,
2013-07-22 19:20:00,78.9,76.1,29.72,West,274,0.0,1.0,91,0.01,,BKN055,1.11,VWS V14.00,2013-07-22 23:20:00,
2013-07-22 19:21:00,78.9,76.1,29.72,West,274,0.0,1.0,91,0.01,,BKN055,1.11,VWS V14.00,2013-07-22 23:21:00,
2013-07-22 19:30:00,78.6,76.4,29.72,West,279,0.0,3.0,93,0.02,,BKN055,1.12,VWS V14.00,2013-07-22 23:30:00,
2013-07-22 19:31:00,78.6,76.4,29.72,West,279,0.0,3.0,93,0.02,,BKN055,1.12,VWS V14.00,2013-07-22 23:31:00,
2013-07-22 19:40:00,77.6,75.4,29.73,NW,315,0.0,6.0,93,0.14,,BKN055,1.25,VWS V14.00,2013-07-22 23:40:00,
2013-07-22 19:41:00,77.6,75.4,29.73,NW,315,0.0,6.0,93,0.14,,BKN055,1.25,VWS V14.00,2013-07-22 23:41:00,
2013-07-22 19:50:00,76.3,74.1,29.73,West,280,3.0,9.0,93,0.32,,BKN055,1.43,VWS V14.00,2013-07-22 23:50:00,
2013-07-22 19:51:00,76.3,74.1,29.73,West,280,3.0,9.0,93,0.32,,BKN055,1.43,VWS V14.00,2013-07-22 23:51:00,
2013-07-22 20:00:00,76.0,74.2,29.73,West,281,0.0,5.0,94,0.36,,BKN055,1.47,VWS V14.00,2013-07-23 00:00:00,
2013-07-22 20:01:00,76.0,74.2,29.73,West,281,0.0,5.0,94,0.36,,BKN055,1.47,VWS V14.00,2013-07-23 00:01:00,
2013-07-22 20:10:00,76.0,74.8,29.74,West,281,0.0,0.0,96,0.36,,BKN055,1.47,VWS V14.00,2013-07-23 00:10:00,
2013-07-22 20:11:00,76.0,74.8,29.74,West,281,0.0,0.0,96,0.36,,BKN055,1.47,VWS V14.00,2013-07-23 00:11:00,
2013-07-22 20:20:00,75.9,75.0,29.74,West,281,0.0,1.0,97,0.36,,BKN055,1.47,VWS V14.00,2013-07-23 00:20:00,
2013-07-22 20:21:00,75.9,75.0,29.74,West,281,0.0,1.0,97,0.36,,BKN055,1.47,VWS V14.00,2013-07-23 00:21:00,
2013-07-22 20:30:00,75.8,74.9,29.74,WNW,282,0.0,0.0,97,0.36,,BKN055,1.47,VWS V14.00,2013-07-23 00:30:00,
2013-07-22 20:31:00,75.8,74.9,29.74,WNW,282,0.0,0.0,97,0.36,,BKN055,1.47,VWS V14.00,2013-07-23 00:31:00,
2013-07-22 20:40:00,75.6,74.7,29.74,West,281,0.0,0.0,97,0.35,,BKN055,1.47,VWS V14.00,2013-07-23 00:40:00,
2013-07-22 20:41:00,75.6,74.7,29.74,West,281,0.0,0.0,97,0.35,,BKN055,1.47,VWS V14.00,2013-07-23 00:41:00,
2013-07-22 20:50:00,75.3,74.4,29.74,WNW,282,0.0,0.0,97,0.22,,BKN055,1.47,VWS V14.00,2013-07-23 00:50:00,
2013-07-22 20:51:00,75.3,74.4,29.74,WNW,282,0.0,0.0,97,0.22,,BKN055,1.47,VWS V14.00,2013-07-23 00:51:00,
2013-07-22 21:00:00,74.9,74.0,29.74,West,281,0.0,3.0,97,0.04,,BKN055,1.47,VWS V14.00,2013-07-23 01:00:00,
2013-07-22 21:01:00,74.9,74.0,29.74,West,281,0.0,3.0,97,0.04,,BKN055,1.47,VWS V14.00,2013-07-23 01:01:00,
2013-07-22 21:10:00,74.4,73.5,29.75,WNW,290,0.0,4.0,97,0.00,,BKN055,1.47,VWS V14.00,2013-07-23 01:10:00,
2013-07-22 21:11:00,74.4,73.5,29.75,WNW,290,0.0,4.0,97,0.00,,BKN055,1.47,VWS V14.00,2013-07-23 01:11:00,
2013-07-22 21:20:00,74.4,73.5,29.75,West,267,0.0,5.0,97,0.00,,BKN055,1.47,VWS V14.00,2013-07-23 01:20:00,
2013-07-22 21:21:00,74.4,73.5,29.75,West,267,0.0,5.0,97,0.00,,BKN055,1.47,VWS V14.00,2013-07-23 01:21:00,
2013-07-22 21:30:00,74.3,73.4,29.75,West,275,0.0,4.0,97,0.00,,BKN055,1.47,VWS V14.00,2013-07-23 01:30:00,
2013-07-22 21:31:00,74.3,73.4,29.75,West,275,0.0,4.0,97,0.00,,BKN055,1.47,VWS V14.00,2013-07-23 01:31:00,
2013-07-22 21:40:00,74.3,73.4,29.76,West,273,0.0,4.0,97,0.00,,BKN055,1.47,VWS V14.00,2013-07-23 01:40:00,
2013-07-22 21:41:00,74.3,73.4,29.76,West,273,0.0,4.0,97,0.00,,BKN055,1.47,VWS V14.00,2013-07-23 01:41:00,
2013-07-22 21:50:00,74.3,73.7,29.76,West,263,0.0,3.0,98,0.00,,BKN055,1.47,VWS V14.00,2013-07-23 01:50:00,
2013-07-22 21:51:00,74.3,73.7,29.76,West,263,0.0,3.0,98,0.00,,BKN055,1.47,VWS V14.00,2013-07-23 01:51:00,
2013-07-22 22:00:00,74.2,73.3,29.76,West,263,0.0,1.0,97,0.00,,BKN055,1.47,VWS V14.00,2013-07-23 02:00:00,
2013-07-22 22:01:00,74.2,73.3,29.76,West,263,0.0,1.0,97,0.00,,BKN055,1.47,VWS V14.00,2013-07-23 02:01:00,
2013-07-22 22:10:00,74.0,73.4,29.77,West,263,0.0,1.0,98,0.00,,BKN055,1.47,VWS V14.00,2013-07-23 02:10:00,
2013-07-22 22:11:00,74.0,73.4,29.77,West,263,0.0,1.0,98,0.00,,BKN055,1.47,VWS V14.00,2013-07-23 02:11:00,
2013-07-22 22:20:00,74.0,73.4,29.77,West,259,0.0,4.0,98,0.00,,BKN055,1.47,VWS V14.00,2013-07-23 02:20:00,
2013-07-22 22:21:00,74.0,73.4,29.77,West,259,0.0,4.0,98,0.00,,BKN055,1.47,VWS V14.00,2013-07-23 02:21:00,
2013-07-22 22:30:00,74.0,73.4,29.77,West,259,0.0,1.0,98,0.00,,BKN055,1.47,VWS V14.00,2013-07-23 02:30:00,
2013-07-22 22:31:00,74.0,73.4,29.77,West,259,0.0,1.0,98,0.00,,BKN055,1.47,VWS V14.00,2013-07-23 02:31:00,
2013-07-22 22:40:00,73.9,73.3,29.77,West,259,0.0,0.0,98,0.00,,BKN055,1.47,VWS V14.00,2013-07-23 02:40:00,
2013-07-22 22:41:00,73.9,73.3,29.77,West,259,0.0,0.0,98,0.00,,BKN055,1.47,VWS V14.00,2013-07-23 02:41:00,
2013-07-22 22:50:00,73.5,72.9,29.78,West,259,0.0,0.0,98,0.00,,BKN055,1.47,VWS V14.00,2013-07-23 02:50:00,
2013-07-22 22:51:00,73.5,72.9,29.78,West,259,0.0,0.0,98,0.00,,BKN055,1.47,VWS V14.00,2013-07-23 02:51:00,
2013-07-22 23:00:00,73.3,72.7,29.78,West,259,0.0,0.0,98,0.00,,BKN055,1.47,VWS V14.00,2013-07-23 03:00:00,
2013-07-22 23:01:00,73.3,72.7,29.78,West,259,0.0,0.0,98,0.00,,BKN055,1.47,VWS V14.00,2013-07-23 03:01:00,
2013-07-22 23:10:00,72.8,72.2,29.78,West,259,0.0,0.0,98,0.00,,BKN055,1.47,VWS V14.00,2013-07-23 03:10:00,
2013-07-22 23:11:00,72.8,72.2,29.78,West,259,0.0,0.0,98,0.00,,BKN055,1.47,VWS V14.00,2013-07-23 03:11:00,
2013-07-22 23:20:00,72.6,72.0,29.78,West,259,0.0,0.0,98,0.00,,BKN055,1.47,VWS V14.00,2013-07-23 03:20:00,
2013-07-22 23:21:00,72.6,72.0,29.78,West,259,0.0,0.0,98,0.00,,BKN055,1.47,VWS V14.00,2013-07-23 03:21:00,
2013-07-22 23:30:00,72.1,71.5,29.78,West,259,0.0,0.0,98,0.00,,BKN055,1.47,VWS V14.00,2013-07-23 03:30:00,
2013-07-22 23:31:00,72.1,71.5,29.78,West,259,0.0,0.0,98,0.00,,BKN055,1.47,VWS V14.00,2013-07-23 03:31:00,
2013-07-22 23:40:00,71.9,71.3,29.78,West,259,0.0,0.0,98,0.00,,BKN055,1.47,VWS V14.00,2013-07-23 03:40:00,
2013-07-22 23:41:00,71.9,71.3,29.78,West,259,0.0,0.0,98,0.00,,BKN055,1.47,VWS V14.00,2013-07-23 03:41:00,
2013-07-22 23:50:00,71.8,71.5,29.78,West,259,0.0,0.0,99,0.00,,BKN055,1.47,VWS V14.00,2013-07-23 03:50:00,
2013-07-22 23:51:00,71.8,71.5,29.78,West,259,0.0,0.0,99,0.00,,BKN055,1.47,VWS V14.00,2013-07-23 03:51:00,